sensor_id;sensor_type;location;lat;lon;timestamp;P1;durP1;ratioP1;P2;durP2;ratioP2
12591;SDS011;6361;52.120;5.108;2023-10-31T00:00:09;12.23;;;8.18;;
12591;SDS011;6361;52.120;5.108;2023-10-31T00:02:37;16.70;;;8.77;;
12591;SDS011;6361;52.120;5.108;2023-10-31T00:05:02;14.43;;;8.60;;
12591;SDS011;6361;52.120;5.108;2023-10-31T00:07:28;13.82;;;8.27;;
12591;SDS011;6361;52.120;5.108;2023-10-31T00:09:54;14.45;;;8.93;;
12591;SDS011;6361;52.120;5.108;2023-10-31T00:12:19;15.40;;;9.63;;
12591;SDS011;6361;52.120;5.108;2023-10-31T00:14:45;17.33;;;9.68;;
12591;SDS011;6361;52.120;5.108;2023-10-31T00:17:10;15.70;;;9.48;;
12591;SDS011;6361;52.120;5.108;2023-10-31T00:19:36;16.33;;;9.95;;
12591;SDS011;6361;52.120;5.108;2023-10-31T00:22:01;17.38;;;10.38;;
12591;SDS011;6361;52.120;5.108;2023-10-31T00:24:26;17.02;;;11.10;;
12591;SDS011;6361;52.120;5.108;2023-10-31T00:26:52;15.82;;;9.98;;
12591;SDS011;6361;52.120;5.108;2023-10-31T00:29:17;16.55;;;10.25;;
12591;SDS011;6361;52.120;5.108;2023-10-31T00:31:42;14.60;;;9.75;;
12591;SDS011;6361;52.120;5.108;2023-10-31T00:34:08;17.38;;;9.82;;
12591;SDS011;6361;52.120;5.108;2023-10-31T00:36:33;14.43;;;9.77;;
12591;SDS011;6361;52.120;5.108;2023-10-31T00:38:59;14.52;;;9.50;;
12591;SDS011;6361;52.120;5.108;2023-10-31T00:41:24;15.85;;;9.35;;
12591;SDS011;6361;52.120;5.108;2023-10-31T00:43:50;16.08;;;8.85;;
12591;SDS011;6361;52.120;5.108;2023-10-31T00:46:15;15.50;;;9.45;;
12591;SDS011;6361;52.120;5.108;2023-10-31T00:48:40;14.68;;;8.90;;
12591;SDS011;6361;52.120;5.108;2023-10-31T00:51:06;15.10;;;8.15;;
12591;SDS011;6361;52.120;5.108;2023-10-31T00:53:31;13.05;;;7.85;;
12591;SDS011;6361;52.120;5.108;2023-10-31T00:55:57;11.73;;;6.93;;
12591;SDS011;6361;52.120;5.108;2023-10-31T00:58:22;9.75;;;5.97;;
12591;SDS011;6361;52.120;5.108;2023-10-31T01:00:48;12.48;;;5.97;;
12591;SDS011;6361;52.120;5.108;2023-10-31T01:03:13;10.15;;;5.57;;
12591;SDS011;6361;52.120;5.108;2023-10-31T01:05:38;8.00;;;4.80;;
12591;SDS011;6361;52.120;5.108;2023-10-31T01:08:04;10.55;;;4.82;;
12591;SDS011;6361;52.120;5.108;2023-10-31T01:10:29;9.18;;;4.28;;
12591;SDS011;6361;52.120;5.108;2023-10-31T01:12:54;8.80;;;4.32;;
12591;SDS011;6361;52.120;5.108;2023-10-31T01:15:20;10.57;;;4.68;;
12591;SDS011;6361;52.120;5.108;2023-10-31T01:17:45;13.18;;;5.90;;
12591;SDS011;6361;52.120;5.108;2023-10-31T01:20:10;13.20;;;6.20;;
12591;SDS011;6361;52.120;5.108;2023-10-31T01:22:36;13.35;;;7.38;;
12591;SDS011;6361;52.120;5.108;2023-10-31T01:25:02;14.55;;;7.65;;
12591;SDS011;6361;52.120;5.108;2023-10-31T01:27:28;16.63;;;8.20;;
12591;SDS011;6361;52.120;5.108;2023-10-31T01:29:53;17.52;;;8.60;;
12591;SDS011;6361;52.120;5.108;2023-10-31T01:32:18;18.05;;;8.60;;
12591;SDS011;6361;52.120;5.108;2023-10-31T01:34:44;24.55;;;10.57;;
12591;SDS011;6361;52.120;5.108;2023-10-31T01:37:09;17.95;;;10.60;;
12591;SDS011;6361;52.120;5.108;2023-10-31T01:39:38;19.63;;;10.77;;
12591;SDS011;6361;52.120;5.108;2023-10-31T01:42:03;22.17;;;12.00;;
12591;SDS011;6361;52.120;5.108;2023-10-31T01:44:28;21.42;;;11.15;;
12591;SDS011;6361;52.120;5.108;2023-10-31T01:46:54;20.65;;;12.27;;
12591;SDS011;6361;52.120;5.108;2023-10-31T01:49:20;19.83;;;11.77;;
12591;SDS011;6361;52.120;5.108;2023-10-31T01:51:45;22.40;;;12.55;;
12591;SDS011;6361;52.120;5.108;2023-10-31T01:54:11;30.45;;;12.95;;
12591;SDS011;6361;52.120;5.108;2023-10-31T01:56:37;23.77;;;13.85;;
12591;SDS011;6361;52.120;5.108;2023-10-31T01:59:04;20.60;;;12.52;;
12591;SDS011;6361;52.120;5.108;2023-10-31T02:01:30;22.10;;;12.52;;
12591;SDS011;6361;52.120;5.108;2023-10-31T02:03:56;20.77;;;12.05;;
12591;SDS011;6361;52.120;5.108;2023-10-31T02:06:23;19.25;;;12.35;;
12591;SDS011;6361;52.120;5.108;2023-10-31T02:08:48;21.20;;;12.52;;
12591;SDS011;6361;52.120;5.108;2023-10-31T02:11:14;17.13;;;10.90;;
12591;SDS011;6361;52.120;5.108;2023-10-31T02:13:39;19.83;;;11.02;;
12591;SDS011;6361;52.120;5.108;2023-10-31T02:16:05;17.13;;;9.93;;
12591;SDS011;6361;52.120;5.108;2023-10-31T02:18:30;15.45;;;9.38;;
12591;SDS011;6361;52.120;5.108;2023-10-31T02:20:56;21.20;;;9.00;;
12591;SDS011;6361;52.120;5.108;2023-10-31T02:23:21;15.70;;;9.32;;
12591;SDS011;6361;52.120;5.108;2023-10-31T02:25:47;15.13;;;9.20;;
12591;SDS011;6361;52.120;5.108;2023-10-31T02:28:12;15.35;;;8.63;;
12591;SDS011;6361;52.120;5.108;2023-10-31T02:30:37;12.27;;;8.35;;
12591;SDS011;6361;52.120;5.108;2023-10-31T02:33:03;16.40;;;8.35;;
12591;SDS011;6361;52.120;5.108;2023-10-31T02:35:28;17.90;;;8.35;;
12591;SDS011;6361;52.120;5.108;2023-10-31T02:37:54;13.63;;;8.02;;
12591;SDS011;6361;52.120;5.108;2023-10-31T02:40:19;16.15;;;8.40;;
12591;SDS011;6361;52.120;5.108;2023-10-31T02:42:44;13.32;;;7.95;;
12591;SDS011;6361;52.120;5.108;2023-10-31T02:45:10;17.42;;;7.90;;
12591;SDS011;6361;52.120;5.108;2023-10-31T02:47:36;14.90;;;7.45;;
12591;SDS011;6361;52.120;5.108;2023-10-31T02:50:01;12.40;;;6.72;;
12591;SDS011;6361;52.120;5.108;2023-10-31T02:52:26;11.43;;;5.05;;
12591;SDS011;6361;52.120;5.108;2023-10-31T02:54:52;9.73;;;4.43;;
12591;SDS011;6361;52.120;5.108;2023-10-31T02:57:17;10.38;;;4.07;;
12591;SDS011;6361;52.120;5.108;2023-10-31T02:59:43;9.48;;;3.75;;
12591;SDS011;6361;52.120;5.108;2023-10-31T03:02:08;7.10;;;2.55;;
12591;SDS011;6361;52.120;5.108;2023-10-31T03:04:33;6.53;;;2.35;;
12591;SDS011;6361;52.120;5.108;2023-10-31T03:06:59;5.55;;;2.15;;
12591;SDS011;6361;52.120;5.108;2023-10-31T03:09:24;6.30;;;1.92;;
12591;SDS011;6361;52.120;5.108;2023-10-31T03:11:49;9.18;;;1.75;;
12591;SDS011;6361;52.120;5.108;2023-10-31T03:14:15;4.28;;;1.60;;
12591;SDS011;6361;52.120;5.108;2023-10-31T03:16:40;3.90;;;1.20;;
12591;SDS011;6361;52.120;5.108;2023-10-31T03:19:06;7.60;;;1.45;;
12591;SDS011;6361;52.120;5.108;2023-10-31T03:21:32;4.97;;;1.30;;
12591;SDS011;6361;52.120;5.108;2023-10-31T03:23:57;5.35;;;1.30;;
12591;SDS011;6361;52.120;5.108;2023-10-31T03:26:23;7.53;;;1.15;;
12591;SDS011;6361;52.120;5.108;2023-10-31T03:28:48;7.03;;;1.10;;
12591;SDS011;6361;52.120;5.108;2023-10-31T03:31:14;4.95;;;1.25;;
12591;SDS011;6361;52.120;5.108;2023-10-31T03:33:40;4.10;;;0.98;;
12591;SDS011;6361;52.120;5.108;2023-10-31T03:36:05;3.50;;;1.00;;
12591;SDS011;6361;52.120;5.108;2023-10-31T03:38:31;3.13;;;1.10;;
12591;SDS011;6361;52.120;5.108;2023-10-31T03:40:57;4.75;;;1.13;;
12591;SDS011;6361;52.120;5.108;2023-10-31T03:43:22;3.58;;;1.05;;
12591;SDS011;6361;52.120;5.108;2023-10-31T03:45:48;4.90;;;1.20;;
12591;SDS011;6361;52.120;5.108;2023-10-31T03:48:14;6.15;;;1.40;;
12591;SDS011;6361;52.120;5.108;2023-10-31T03:50:40;4.40;;;1.13;;
12591;SDS011;6361;52.120;5.108;2023-10-31T03:53:05;4.60;;;1.17;;
12591;SDS011;6361;52.120;5.108;2023-10-31T03:55:31;4.47;;;1.20;;
12591;SDS011;6361;52.120;5.108;2023-10-31T03:57:56;4.65;;;1.17;;
12591;SDS011;6361;52.120;5.108;2023-10-31T04:00:22;5.68;;;1.40;;
12591;SDS011;6361;52.120;5.108;2023-10-31T04:02:47;4.43;;;1.25;;
12591;SDS011;6361;52.120;5.108;2023-10-31T04:05:12;4.15;;;1.15;;
12591;SDS011;6361;52.120;5.108;2023-10-31T04:07:38;3.92;;;0.85;;
12591;SDS011;6361;52.120;5.108;2023-10-31T04:10:03;2.17;;;0.90;;
12591;SDS011;6361;52.120;5.108;2023-10-31T04:12:29;3.80;;;0.90;;
12591;SDS011;6361;52.120;5.108;2023-10-31T04:14:55;1.40;;;0.75;;
12591;SDS011;6361;52.120;5.108;2023-10-31T04:17:20;5.13;;;0.88;;
12591;SDS011;6361;52.120;5.108;2023-10-31T04:19:45;3.40;;;0.80;;
12591;SDS011;6361;52.120;5.108;2023-10-31T04:22:11;3.67;;;0.60;;
12591;SDS011;6361;52.120;5.108;2023-10-31T04:24:36;1.85;;;0.50;;
12591;SDS011;6361;52.120;5.108;2023-10-31T04:27:01;2.40;;;0.75;;
12591;SDS011;6361;52.120;5.108;2023-10-31T04:29:27;0.70;;;0.40;;
12591;SDS011;6361;52.120;5.108;2023-10-31T04:31:53;1.80;;;0.40;;
12591;SDS011;6361;52.120;5.108;2023-10-31T04:34:18;1.65;;;0.70;;
12591;SDS011;6361;52.120;5.108;2023-10-31T04:36:44;0.60;;;0.40;;
12591;SDS011;6361;52.120;5.108;2023-10-31T04:39:09;1.00;;;0.40;;
12591;SDS011;6361;52.120;5.108;2023-10-31T04:41:34;0.85;;;0.32;;
12591;SDS011;6361;52.120;5.108;2023-10-31T04:44:00;1.27;;;0.52;;
12591;SDS011;6361;52.120;5.108;2023-10-31T04:46:25;1.35;;;0.47;;
12591;SDS011;6361;52.120;5.108;2023-10-31T04:48:53;2.42;;;0.60;;
12591;SDS011;6361;52.120;5.108;2023-10-31T04:51:19;1.52;;;0.45;;
12591;SDS011;6361;52.120;5.108;2023-10-31T04:53:44;1.83;;;0.52;;
12591;SDS011;6361;52.120;5.108;2023-10-31T04:56:14;4.22;;;1.30;;
12591;SDS011;6361;52.120;5.108;2023-10-31T04:58:40;1.48;;;0.68;;
12591;SDS011;6361;52.120;5.108;2023-10-31T05:01:10;5.03;;;1.10;;
12591;SDS011;6361;52.120;5.108;2023-10-31T05:03:36;5.20;;;1.73;;
12591;SDS011;6361;52.120;5.108;2023-10-31T05:06:02;4.82;;;1.85;;
12591;SDS011;6361;52.120;5.108;2023-10-31T05:08:28;6.72;;;2.17;;
12591;SDS011;6361;52.120;5.108;2023-10-31T05:10:54;5.63;;;2.30;;
12591;SDS011;6361;52.120;5.108;2023-10-31T05:13:19;6.10;;;2.53;;
12591;SDS011;6361;52.120;5.108;2023-10-31T05:15:45;5.18;;;3.28;;
12591;SDS011;6361;52.120;5.108;2023-10-31T05:18:10;6.53;;;3.38;;
12591;SDS011;6361;52.120;5.108;2023-10-31T05:20:35;8.27;;;3.58;;
12591;SDS011;6361;52.120;5.108;2023-10-31T05:23:01;9.85;;;3.08;;
12591;SDS011;6361;52.120;5.108;2023-10-31T05:25:26;8.75;;;4.13;;
12591;SDS011;6361;52.120;5.108;2023-10-31T05:27:52;7.45;;;3.88;;
12591;SDS011;6361;52.120;5.108;2023-10-31T05:30:17;6.00;;;3.80;;
12591;SDS011;6361;52.120;5.108;2023-10-31T05:32:42;6.88;;;3.58;;
12591;SDS011;6361;52.120;5.108;2023-10-31T05:35:09;4.55;;;3.65;;
12591;SDS011;6361;52.120;5.108;2023-10-31T05:37:35;6.55;;;3.45;;
12591;SDS011;6361;52.120;5.108;2023-10-31T05:40:00;6.35;;;3.30;;
12591;SDS011;6361;52.120;5.108;2023-10-31T05:42:26;5.97;;;3.42;;
12591;SDS011;6361;52.120;5.108;2023-10-31T05:44:54;6.43;;;3.47;;
12591;SDS011;6361;52.120;5.108;2023-10-31T05:47:19;8.90;;;4.28;;
12591;SDS011;6361;52.120;5.108;2023-10-31T05:49:45;7.50;;;4.68;;
12591;SDS011;6361;52.120;5.108;2023-10-31T05:52:13;7.35;;;4.97;;
12591;SDS011;6361;52.120;5.108;2023-10-31T05:54:39;9.63;;;6.05;;
12591;SDS011;6361;52.120;5.108;2023-10-31T05:57:04;11.15;;;6.07;;
12591;SDS011;6361;52.120;5.108;2023-10-31T05:59:29;9.98;;;6.50;;
12591;SDS011;6361;52.120;5.108;2023-10-31T06:01:55;11.60;;;6.78;;
12591;SDS011;6361;52.120;5.108;2023-10-31T06:04:20;9.35;;;6.85;;
12591;SDS011;6361;52.120;5.108;2023-10-31T06:06:45;11.02;;;6.82;;
12591;SDS011;6361;52.120;5.108;2023-10-31T06:09:11;11.50;;;5.63;;
12591;SDS011;6361;52.120;5.108;2023-10-31T06:11:39;9.93;;;5.55;;
12591;SDS011;6361;52.120;5.108;2023-10-31T06:14:05;7.45;;;4.75;;
12591;SDS011;6361;52.120;5.108;2023-10-31T06:16:31;8.75;;;4.72;;
12591;SDS011;6361;52.120;5.108;2023-10-31T06:18:56;6.50;;;3.67;;
12591;SDS011;6361;52.120;5.108;2023-10-31T06:21:21;6.30;;;3.05;;
12591;SDS011;6361;52.120;5.108;2023-10-31T06:23:47;5.35;;;3.00;;
12591;SDS011;6361;52.120;5.108;2023-10-31T06:26:12;3.97;;;2.30;;
12591;SDS011;6361;52.120;5.108;2023-10-31T06:28:37;3.78;;;1.90;;
12591;SDS011;6361;52.120;5.108;2023-10-31T06:31:05;4.15;;;1.90;;
12591;SDS011;6361;52.120;5.108;2023-10-31T06:33:30;3.10;;;1.60;;
12591;SDS011;6361;52.120;5.108;2023-10-31T06:35:55;4.05;;;1.60;;
12591;SDS011;6361;52.120;5.108;2023-10-31T06:38:21;3.38;;;1.80;;
12591;SDS011;6361;52.120;5.108;2023-10-31T06:40:46;4.75;;;1.80;;
12591;SDS011;6361;52.120;5.108;2023-10-31T06:43:11;8.82;;;2.00;;
12591;SDS011;6361;52.120;5.108;2023-10-31T06:45:37;4.15;;;1.95;;
12591;SDS011;6361;52.120;5.108;2023-10-31T06:48:02;4.13;;;1.67;;
12591;SDS011;6361;52.120;5.108;2023-10-31T06:50:28;4.05;;;1.70;;
12591;SDS011;6361;52.120;5.108;2023-10-31T06:52:53;4.07;;;1.80;;
12591;SDS011;6361;52.120;5.108;2023-10-31T06:55:19;4.15;;;1.40;;
12591;SDS011;6361;52.120;5.108;2023-10-31T06:57:44;9.45;;;2.22;;
12591;SDS011;6361;52.120;5.108;2023-10-31T07:00:10;3.00;;;1.70;;
12591;SDS011;6361;52.120;5.108;2023-10-31T07:02:36;4.35;;;1.70;;
12591;SDS011;6361;52.120;5.108;2023-10-31T07:05:01;4.50;;;1.92;;
12591;SDS011;6361;52.120;5.108;2023-10-31T07:07:28;3.33;;;1.60;;
12591;SDS011;6361;52.120;5.108;2023-10-31T07:09:54;3.75;;;1.88;;
12591;SDS011;6361;52.120;5.108;2023-10-31T07:12:19;4.20;;;1.73;;
12591;SDS011;6361;52.120;5.108;2023-10-31T07:14:44;3.33;;;1.60;;
12591;SDS011;6361;52.120;5.108;2023-10-31T07:17:09;6.53;;;2.05;;
12591;SDS011;6361;52.120;5.108;2023-10-31T07:19:35;4.30;;;1.77;;
12591;SDS011;6361;52.120;5.108;2023-10-31T07:22:00;4.35;;;1.70;;
12591;SDS011;6361;52.120;5.108;2023-10-31T07:24:26;4.90;;;1.80;;
12591;SDS011;6361;52.120;5.108;2023-10-31T07:26:53;2.92;;;1.60;;
12591;SDS011;6361;52.120;5.108;2023-10-31T07:29:18;3.05;;;1.90;;
12591;SDS011;6361;52.120;5.108;2023-10-31T07:31:44;4.60;;;1.55;;
12591;SDS011;6361;52.120;5.108;2023-10-31T07:34:09;6.18;;;2.22;;
12591;SDS011;6361;52.120;5.108;2023-10-31T07:36:36;4.55;;;2.10;;
12591;SDS011;6361;52.120;5.108;2023-10-31T07:39:02;8.88;;;2.25;;
12591;SDS011;6361;52.120;5.108;2023-10-31T07:41:28;2.58;;;1.63;;
12591;SDS011;6361;52.120;5.108;2023-10-31T07:43:54;4.10;;;2.13;;
12591;SDS011;6361;52.120;5.108;2023-10-31T07:46:20;5.90;;;2.25;;
12591;SDS011;6361;52.120;5.108;2023-10-31T07:48:45;6.15;;;2.30;;
12591;SDS011;6361;52.120;5.108;2023-10-31T07:51:10;3.30;;;2.10;;
12591;SDS011;6361;52.120;5.108;2023-10-31T07:53:36;3.83;;;2.15;;
12591;SDS011;6361;52.120;5.108;2023-10-31T07:56:01;5.93;;;2.20;;
12591;SDS011;6361;52.120;5.108;2023-10-31T07:58:26;7.72;;;2.50;;
12591;SDS011;6361;52.120;5.108;2023-10-31T08:00:52;5.45;;;2.90;;
12591;SDS011;6361;52.120;5.108;2023-10-31T08:03:17;9.95;;;3.30;;
12591;SDS011;6361;52.120;5.108;2023-10-31T08:05:42;6.30;;;2.75;;
12591;SDS011;6361;52.120;5.108;2023-10-31T08:08:08;6.38;;;2.97;;
12591;SDS011;6361;52.120;5.108;2023-10-31T08:10:33;9.93;;;3.08;;
12591;SDS011;6361;52.120;5.108;2023-10-31T08:12:59;9.65;;;3.17;;
12591;SDS011;6361;52.120;5.108;2023-10-31T08:15:25;6.90;;;3.40;;
12591;SDS011;6361;52.120;5.108;2023-10-31T08:17:50;10.68;;;3.75;;
12591;SDS011;6361;52.120;5.108;2023-10-31T08:20:15;8.90;;;3.40;;
12591;SDS011;6361;52.120;5.108;2023-10-31T08:22:41;8.35;;;3.25;;
12591;SDS011;6361;52.120;5.108;2023-10-31T08:25:09;9.10;;;3.10;;
12591;SDS011;6361;52.120;5.108;2023-10-31T08:27:35;8.27;;;3.80;;
12591;SDS011;6361;52.120;5.108;2023-10-31T08:30:00;8.02;;;3.40;;
12591;SDS011;6361;52.120;5.108;2023-10-31T08:32:27;8.32;;;3.75;;
12591;SDS011;6361;52.120;5.108;2023-10-31T08:34:52;11.55;;;3.45;;
12591;SDS011;6361;52.120;5.108;2023-10-31T08:37:19;6.72;;;3.65;;
12591;SDS011;6361;52.120;5.108;2023-10-31T08:39:44;5.78;;;3.85;;
12591;SDS011;6361;52.120;5.108;2023-10-31T08:42:10;7.75;;;3.55;;
12591;SDS011;6361;52.120;5.108;2023-10-31T08:44:35;11.75;;;4.45;;
12591;SDS011;6361;52.120;5.108;2023-10-31T08:47:02;10.52;;;4.38;;
12591;SDS011;6361;52.120;5.108;2023-10-31T08:49:28;9.77;;;4.05;;
12591;SDS011;6361;52.120;5.108;2023-10-31T08:51:53;10.70;;;3.88;;
12591;SDS011;6361;52.120;5.108;2023-10-31T08:54:19;13.80;;;4.43;;
12591;SDS011;6361;52.120;5.108;2023-10-31T08:56:44;12.43;;;4.85;;
12591;SDS011;6361;52.120;5.108;2023-10-31T08:59:09;11.80;;;5.22;;
12591;SDS011;6361;52.120;5.108;2023-10-31T09:01:35;9.70;;;4.50;;
12591;SDS011;6361;52.120;5.108;2023-10-31T09:04:00;9.77;;;4.78;;
12591;SDS011;6361;52.120;5.108;2023-10-31T09:06:26;11.70;;;4.75;;
12591;SDS011;6361;52.120;5.108;2023-10-31T09:08:51;12.43;;;5.38;;
12591;SDS011;6361;52.120;5.108;2023-10-31T09:11:17;8.95;;;5.25;;
12591;SDS011;6361;52.120;5.108;2023-10-31T09:13:42;13.25;;;5.35;;
12591;SDS011;6361;52.120;5.108;2023-10-31T09:16:07;15.02;;;6.18;;
12591;SDS011;6361;52.120;5.108;2023-10-31T09:18:33;12.20;;;5.30;;
12591;SDS011;6361;52.120;5.108;2023-10-31T09:20:59;11.35;;;5.93;;
12591;SDS011;6361;52.120;5.108;2023-10-31T09:23:25;11.07;;;5.35;;
12591;SDS011;6361;52.120;5.108;2023-10-31T09:25:50;9.35;;;5.28;;
12591;SDS011;6361;52.120;5.108;2023-10-31T09:28:15;11.60;;;5.90;;
12591;SDS011;6361;52.120;5.108;2023-10-31T09:30:41;11.13;;;5.72;;
12591;SDS011;6361;52.120;5.108;2023-10-31T09:33:06;15.90;;;6.30;;
12591;SDS011;6361;52.120;5.108;2023-10-31T09:35:31;13.35;;;5.97;;
12591;SDS011;6361;52.120;5.108;2023-10-31T09:37:57;15.65;;;6.22;;
12591;SDS011;6361;52.120;5.108;2023-10-31T09:40:22;10.88;;;5.22;;
12591;SDS011;6361;52.120;5.108;2023-10-31T09:42:48;11.65;;;5.53;;
12591;SDS011;6361;52.120;5.108;2023-10-31T09:45:14;13.43;;;6.43;;
12591;SDS011;6361;52.120;5.108;2023-10-31T09:47:39;10.85;;;5.90;;
12591;SDS011;6361;52.120;5.108;2023-10-31T09:50:06;16.73;;;6.28;;
12591;SDS011;6361;52.120;5.108;2023-10-31T09:52:35;14.90;;;6.07;;
12591;SDS011;6361;52.120;5.108;2023-10-31T09:55:01;14.15;;;5.90;;
12591;SDS011;6361;52.120;5.108;2023-10-31T09:57:26;10.57;;;5.82;;
12591;SDS011;6361;52.120;5.108;2023-10-31T09:59:52;15.02;;;5.47;;
12591;SDS011;6361;52.120;5.108;2023-10-31T10:02:17;12.85;;;5.00;;
12591;SDS011;6361;52.120;5.108;2023-10-31T10:04:42;14.77;;;5.40;;
12591;SDS011;6361;52.120;5.108;2023-10-31T10:07:08;12.70;;;4.65;;
12591;SDS011;6361;52.120;5.108;2023-10-31T10:09:34;12.65;;;5.45;;
12591;SDS011;6361;52.120;5.108;2023-10-31T10:12:00;15.45;;;5.90;;
12591;SDS011;6361;52.120;5.108;2023-10-31T10:14:26;13.10;;;5.40;;
12591;SDS011;6361;52.120;5.108;2023-10-31T10:16:53;16.60;;;5.90;;
12591;SDS011;6361;52.120;5.108;2023-10-31T10:19:20;14.15;;;6.30;;
12591;SDS011;6361;52.120;5.108;2023-10-31T10:21:56;16.45;;;5.90;;
12591;SDS011;6361;52.120;5.108;2023-10-31T10:24:22;10.15;;;4.72;;
12591;SDS011;6361;52.120;5.108;2023-10-31T10:26:49;14.18;;;5.75;;
12591;SDS011;6361;52.120;5.108;2023-10-31T10:29:15;11.45;;;5.00;;
12591;SDS011;6361;52.120;5.108;2023-10-31T10:31:40;14.52;;;5.20;;
12591;SDS011;6361;52.120;5.108;2023-10-31T10:34:07;13.57;;;4.70;;
12591;SDS011;6361;52.120;5.108;2023-10-31T10:36:37;12.77;;;4.57;;
12591;SDS011;6361;52.120;5.108;2023-10-31T10:39:03;17.60;;;4.15;;
12591;SDS011;6361;52.120;5.108;2023-10-31T10:41:31;13.60;;;3.88;;
12591;SDS011;6361;52.120;5.108;2023-10-31T10:44:04;10.63;;;3.70;;
12591;SDS011;6361;52.120;5.108;2023-10-31T10:46:33;10.20;;;3.83;;
12591;SDS011;6361;52.120;5.108;2023-10-31T10:49:03;8.80;;;3.40;;
12591;SDS011;6361;52.120;5.108;2023-10-31T10:51:31;9.55;;;3.97;;
12591;SDS011;6361;52.120;5.108;2023-10-31T10:54:11;14.75;;;4.00;;
12591;SDS011;6361;52.120;5.108;2023-10-31T10:56:51;10.98;;;3.75;;
12591;SDS011;6361;52.120;5.108;2023-10-31T10:59:21;14.23;;;4.00;;
12591;SDS011;6361;52.120;5.108;2023-10-31T11:01:55;8.70;;;3.33;;
12591;SDS011;6361;52.120;5.108;2023-10-31T11:04:23;8.00;;;3.08;;
12591;SDS011;6361;52.120;5.108;2023-10-31T11:06:49;8.07;;;3.05;;
12591;SDS011;6361;52.120;5.108;2023-10-31T11:09:14;12.35;;;3.38;;
12591;SDS011;6361;52.120;5.108;2023-10-31T11:11:40;5.90;;;2.67;;
12591;SDS011;6361;52.120;5.108;2023-10-31T11:14:06;8.80;;;2.72;;
12591;SDS011;6361;52.120;5.108;2023-10-31T11:16:38;7.40;;;2.85;;
12591;SDS011;6361;52.120;5.108;2023-10-31T11:19:06;10.25;;;2.90;;
12591;SDS011;6361;52.120;5.108;2023-10-31T11:21:32;8.80;;;2.95;;
12591;SDS011;6361;52.120;5.108;2023-10-31T11:23:59;9.00;;;2.80;;
12591;SDS011;6361;52.120;5.108;2023-10-31T11:26:25;9.63;;;3.10;;
12591;SDS011;6361;52.120;5.108;2023-10-31T11:28:51;10.23;;;3.38;;
12591;SDS011;6361;52.120;5.108;2023-10-31T11:31:17;14.30;;;3.65;;
12591;SDS011;6361;52.120;5.108;2023-10-31T11:33:42;11.00;;;3.63;;
12591;SDS011;6361;52.120;5.108;2023-10-31T11:36:08;9.40;;;4.07;;
12591;SDS011;6361;52.120;5.108;2023-10-31T11:38:36;15.05;;;4.82;;
12591;SDS011;6361;52.120;5.108;2023-10-31T11:41:03;15.70;;;4.45;;
12591;SDS011;6361;52.120;5.108;2023-10-31T11:43:36;12.80;;;4.15;;
12591;SDS011;6361;52.120;5.108;2023-10-31T11:46:01;15.88;;;6.35;;
12591;SDS011;6361;52.120;5.108;2023-10-31T11:48:44;15.57;;;5.88;;
12591;SDS011;6361;52.120;5.108;2023-10-31T11:51:11;17.45;;;7.00;;
12591;SDS011;6361;52.120;5.108;2023-10-31T11:53:38;15.00;;;8.05;;
12591;SDS011;6361;52.120;5.108;2023-10-31T11:56:04;19.77;;;9.25;;
12591;SDS011;6361;52.120;5.108;2023-10-31T11:58:30;19.45;;;11.52;;
12591;SDS011;6361;52.120;5.108;2023-10-31T12:01:02;19.83;;;11.02;;
12591;SDS011;6361;52.120;5.108;2023-10-31T12:03:36;20.20;;;11.00;;
12591;SDS011;6361;52.120;5.108;2023-10-31T12:06:13;23.30;;;13.13;;
12591;SDS011;6361;52.120;5.108;2023-10-31T12:08:39;24.75;;;15.55;;
12591;SDS011;6361;52.120;5.108;2023-10-31T12:13:39;28.13;;;16.55;;
12591;SDS011;6361;52.120;5.108;2023-10-31T12:16:06;27.63;;;15.57;;
12591;SDS011;6361;52.120;5.108;2023-10-31T12:18:34;25.70;;;16.42;;
12591;SDS011;6361;52.120;5.108;2023-10-31T12:21:00;27.40;;;16.65;;
12591;SDS011;6361;52.120;5.108;2023-10-31T12:23:26;31.05;;;17.25;;
12591;SDS011;6361;52.120;5.108;2023-10-31T12:25:51;33.03;;;18.55;;
12591;SDS011;6361;52.120;5.108;2023-10-31T12:28:19;27.98;;;17.40;;
12591;SDS011;6361;52.120;5.108;2023-10-31T12:30:46;26.85;;;16.10;;
12591;SDS011;6361;52.120;5.108;2023-10-31T12:33:12;34.72;;;17.52;;
12591;SDS011;6361;52.120;5.108;2023-10-31T12:35:38;31.20;;;17.40;;
12591;SDS011;6361;52.120;5.108;2023-10-31T12:38:04;26.83;;;17.00;;
12591;SDS011;6361;52.120;5.108;2023-10-31T12:40:30;33.30;;;17.60;;
12591;SDS011;6361;52.120;5.108;2023-10-31T12:42:55;30.55;;;17.75;;
12591;SDS011;6361;52.120;5.108;2023-10-31T12:45:21;27.85;;;16.23;;
12591;SDS011;6361;52.120;5.108;2023-10-31T12:50:31;26.97;;;15.20;;
12591;SDS011;6361;52.120;5.108;2023-10-31T12:52:57;23.02;;;12.88;;
12591;SDS011;6361;52.120;5.108;2023-10-31T12:55:24;25.48;;;14.82;;
12591;SDS011;6361;52.120;5.108;2023-10-31T12:57:51;22.95;;;14.45;;
12591;SDS011;6361;52.120;5.108;2023-10-31T13:00:17;24.70;;;13.38;;
12591;SDS011;6361;52.120;5.108;2023-10-31T13:02:49;24.25;;;13.57;;
12591;SDS011;6361;52.120;5.108;2023-10-31T13:05:24;20.48;;;12.27;;
12591;SDS011;6361;52.120;5.108;2023-10-31T13:07:51;19.83;;;12.27;;
12591;SDS011;6361;52.120;5.108;2023-10-31T13:10:20;22.83;;;13.63;;
12591;SDS011;6361;52.120;5.108;2023-10-31T13:12:47;23.58;;;14.32;;
12591;SDS011;6361;52.120;5.108;2023-10-31T13:15:15;29.42;;;14.50;;
12591;SDS011;6361;52.120;5.108;2023-10-31T13:17:41;24.48;;;14.75;;
12591;SDS011;6361;52.120;5.108;2023-10-31T13:20:08;25.38;;;14.88;;
12591;SDS011;6361;52.120;5.108;2023-10-31T13:22:37;20.88;;;12.90;;
12591;SDS011;6361;52.120;5.108;2023-10-31T13:25:04;21.60;;;13.98;;
12591;SDS011;6361;52.120;5.108;2023-10-31T13:27:33;24.13;;;14.80;;
12591;SDS011;6361;52.120;5.108;2023-10-31T13:30:02;28.45;;;15.70;;
12591;SDS011;6361;52.120;5.108;2023-10-31T13:32:28;28.70;;;16.10;;
12591;SDS011;6361;52.120;5.108;2023-10-31T13:34:53;31.25;;;17.73;;
12591;SDS011;6361;52.120;5.108;2023-10-31T13:37:19;29.02;;;19.30;;
12591;SDS011;6361;52.120;5.108;2023-10-31T13:39:44;32.30;;;19.77;;
12591;SDS011;6361;52.120;5.108;2023-10-31T13:42:09;35.03;;;20.63;;
12591;SDS011;6361;52.120;5.108;2023-10-31T13:44:35;34.97;;;21.33;;
12591;SDS011;6361;52.120;5.108;2023-10-31T13:47:01;35.83;;;21.30;;
12591;SDS011;6361;52.120;5.108;2023-10-31T13:49:27;30.77;;;20.08;;
12591;SDS011;6361;52.120;5.108;2023-10-31T13:51:52;36.22;;;22.08;;
12591;SDS011;6361;52.120;5.108;2023-10-31T13:54:18;33.38;;;21.83;;
12591;SDS011;6361;52.120;5.108;2023-10-31T13:56:44;38.05;;;22.23;;
12591;SDS011;6361;52.120;5.108;2023-10-31T13:59:10;35.95;;;21.13;;
12591;SDS011;6361;52.120;5.108;2023-10-31T14:01:35;34.13;;;22.67;;
12591;SDS011;6361;52.120;5.108;2023-10-31T14:04:01;35.75;;;23.65;;
12591;SDS011;6361;52.120;5.108;2023-10-31T14:06:26;37.10;;;24.00;;
12591;SDS011;6361;52.120;5.108;2023-10-31T14:08:55;35.63;;;23.58;;
12591;SDS011;6361;52.120;5.108;2023-10-31T14:11:23;37.53;;;23.52;;
12591;SDS011;6361;52.120;5.108;2023-10-31T14:13:48;39.65;;;24.27;;
12591;SDS011;6361;52.120;5.108;2023-10-31T14:16:15;36.78;;;24.00;;
12591;SDS011;6361;52.120;5.108;2023-10-31T14:18:41;34.28;;;23.02;;
12591;SDS011;6361;52.120;5.108;2023-10-31T14:21:07;39.08;;;24.35;;
12591;SDS011;6361;52.120;5.108;2023-10-31T14:23:33;31.77;;;20.75;;
12591;SDS011;6361;52.120;5.108;2023-10-31T14:25:58;29.17;;;20.15;;
12591;SDS011;6361;52.120;5.108;2023-10-31T14:28:24;25.95;;;16.73;;
12591;SDS011;6361;52.120;5.108;2023-10-31T14:30:49;27.77;;;18.38;;
12591;SDS011;6361;52.120;5.108;2023-10-31T14:33:17;27.23;;;18.45;;
12591;SDS011;6361;52.120;5.108;2023-10-31T14:35:42;27.88;;;18.27;;
12591;SDS011;6361;52.120;5.108;2023-10-31T14:38:08;26.77;;;18.55;;
12591;SDS011;6361;52.120;5.108;2023-10-31T14:40:33;28.10;;;18.95;;
12591;SDS011;6361;52.120;5.108;2023-10-31T14:42:58;30.40;;;19.85;;
12591;SDS011;6361;52.120;5.108;2023-10-31T14:45:24;32.22;;;21.70;;
12591;SDS011;6361;52.120;5.108;2023-10-31T14:47:50;36.15;;;23.77;;